createdAt,value
2023-03-26T00:00:06.159Z,82.44
2023-03-26T00:01:37.832Z,82.55
2023-03-26T00:03:18.476Z,82.52
2023-03-26T00:04:53.457Z,82.80
2023-03-26T00:06:25.935Z,82.98
2023-03-26T00:07:59.409Z,83.05
2023-03-26T00:09:32.397Z,82.10
2023-03-26T00:11:04.765Z,82.46
2023-03-26T00:12:38.829Z,82.38
2023-03-26T00:14:14.007Z,83.21
2023-03-26T00:15:58.046Z,82.82
2023-03-26T00:17:29.918Z,83.87
2023-03-26T00:19:02.065Z,82.71
2023-03-26T00:20:36.294Z,83.18
2023-03-26T00:22:07.961Z,82.90
2023-03-26T00:23:39.756Z,82.75
2023-03-26T00:25:13.755Z,83.12
2023-03-26T00:26:48.494Z,82.79
2023-03-26T00:28:22.879Z,83.41
2023-03-26T00:29:56.575Z,83.87
2023-03-26T00:31:31.418Z,82.54
2023-03-26T00:33:03.115Z,83.41
2023-03-26T00:34:35.265Z,83.88
2023-03-26T00:36:10.052Z,83.31
2023-03-26T00:37:43.133Z,83.19
2023-03-26T00:39:15.218Z,83.78
2023-03-26T00:40:50.928Z,85.25
2023-03-26T00:42:22.575Z,84.84
2023-03-26T00:43:56.428Z,84.93
2023-03-26T00:45:28.279Z,84.18
2023-03-26T00:47:00.001Z,83.99
2023-03-26T00:48:43.940Z,84.79
2023-03-26T00:50:16.737Z,84.14
2023-03-26T00:51:48.378Z,84.18
2023-03-26T00:53:20.069Z,84.61
2023-03-26T00:54:52.060Z,84.25
2023-03-26T00:56:25.101Z,84.81
2023-03-26T00:57:57.305Z,84.57
2023-03-26T00:59:30.367Z,84.87
2023-03-26T01:01:03.965Z,84.31
2023-03-26T01:02:35.693Z,85.14
2023-03-26T01:04:27.524Z,84.58
2023-03-26T01:06:02.697Z,85.62
2023-03-26T01:07:35.235Z,84.77
2023-03-26T01:09:15.979Z,85.33
2023-03-26T01:10:50.996Z,85.72
2023-03-26T01:12:24.946Z,85.34
2023-03-26T01:13:57.499Z,85.21
2023-03-26T01:15:29.977Z,86.13
2023-03-26T01:17:02.366Z,85.87
2023-03-26T01:18:41.181Z,84.93
2023-03-26T01:20:15.526Z,84.21
2023-03-26T01:21:47.365Z,84.02
2023-03-26T01:23:21.785Z,85.85
2023-03-26T01:24:56.633Z,84.87
2023-03-26T01:26:52.778Z,84.50
2023-03-26T01:28:25.212Z,84.27
2023-03-26T01:29:58.818Z,84.86
2023-03-26T01:31:36.944Z,84.86
2023-03-26T01:33:14.521Z,84.11
2023-03-26T01:34:52.518Z,83.82
2023-03-26T01:36:28.286Z,83.77
2023-03-26T01:38:10.779Z,84.53
2023-03-26T01:39:49.605Z,84.21
2023-03-26T01:41:25.174Z,84.51
2023-03-26T01:43:00.512Z,84.32
2023-03-26T01:44:34.743Z,85.75
2023-03-26T01:46:08.213Z,84.96
2023-03-26T01:47:40.441Z,86.75
2023-03-26T01:49:13.296Z,85.64
2023-03-26T01:50:45.223Z,85.45
2023-03-26T01:52:18.489Z,84.95
2023-03-26T01:53:50.077Z,84.70
2023-03-26T01:55:22.501Z,85.73
2023-03-26T01:57:01.293Z,86.16
2023-03-26T01:58:35.958Z,85.61
2023-03-26T02:00:20.883Z,85.52
2023-03-26T02:01:54.902Z,85.83
2023-03-26T02:03:28.264Z,86.90
2023-03-26T02:05:08.411Z,86.65
2023-03-26T02:06:42.630Z,85.77
2023-03-26T02:08:16.648Z,85.71
2023-03-26T02:09:49.945Z,85.61
2023-03-26T02:11:23.304Z,85.67
2023-03-26T02:12:56.676Z,85.38
2023-03-26T02:14:29.544Z,85.18
2023-03-26T02:16:01.953Z,84.39
2023-03-26T02:17:33.731Z,84.78
2023-03-26T02:19:05.379Z,84.91
2023-03-26T02:20:37.158Z,84.21
2023-03-26T02:22:16.759Z,84.77
2023-03-26T02:23:49.116Z,85.25
2023-03-26T02:25:21.089Z,85.08
2023-03-26T02:26:52.722Z,86.39
2023-03-26T02:28:25.764Z,86.41
2023-03-26T02:29:57.337Z,85.16
2023-03-26T02:31:30.167Z,85.19
2023-03-26T02:33:02.028Z,85.63
2023-03-26T02:34:33.744Z,85.68
2023-03-26T02:36:06.205Z,85.28
2023-03-26T02:37:38.287Z,84.98
2023-03-26T02:39:10.847Z,85.51
2023-03-26T02:40:42.484Z,84.92
2023-03-26T02:42:16.102Z,84.80
2023-03-26T02:43:49.155Z,84.62
2023-03-26T02:45:21.044Z,86.25
2023-03-26T02:46:52.751Z,85.30
2023-03-26T02:48:24.406Z,84.25
2023-03-26T02:49:55.988Z,85.15
2023-03-26T02:51:27.659Z,87.75
2023-03-26T02:52:59.319Z,85.90
2023-03-26T02:54:31.018Z,85.55
2023-03-26T02:56:02.677Z,86.51
2023-03-26T02:57:34.631Z,85.76
2023-03-26T02:59:07.681Z,85.03
2023-03-26T03:00:39.269Z,87.03
2023-03-26T03:02:13.383Z,86.67
2023-03-26T03:03:47.220Z,85.90
2023-03-26T03:05:19.077Z,86.28
2023-03-26T03:06:53.008Z,85.56
2023-03-26T03:08:26.377Z,88.20
2023-03-26T03:10:03.370Z,86.79
2023-03-26T03:11:35.491Z,87.07
2023-03-26T03:13:07.859Z,86.68
2023-03-26T03:14:40.994Z,85.81
2023-03-26T03:16:12.676Z,85.15
2023-03-26T03:17:44.397Z,85.19
2023-03-26T03:19:16.085Z,86.89
2023-03-26T03:20:47.698Z,86.46
2023-03-26T03:22:20.163Z,85.83
2023-03-26T03:23:51.882Z,85.16
2023-03-26T03:25:23.521Z,85.56
2023-03-26T03:26:56.859Z,86.48
2023-03-26T03:28:28.557Z,86.20
2023-03-26T03:30:01.586Z,85.86
2023-03-26T03:31:33.346Z,84.67
2023-03-26T03:33:06.090Z,85.78
2023-03-26T03:34:38.635Z,85.38
2023-03-26T03:36:20.584Z,85.21
2023-03-26T03:37:53.508Z,85.44
2023-03-26T03:39:25.542Z,85.78
2023-03-26T03:40:57.373Z,86.53
2023-03-26T03:42:29.345Z,85.39
2023-03-26T03:44:01.808Z,84.52
2023-03-26T03:45:34.932Z,84.04
2023-03-26T03:47:07.127Z,84.56
2023-03-26T03:48:39.202Z,84.86
2023-03-26T03:50:11.284Z,84.13
2023-03-26T03:51:43.025Z,83.66
2023-03-26T03:53:15.979Z,84.57
2023-03-26T03:54:47.698Z,86.44
2023-03-26T03:56:24.088Z,87.39
2023-03-26T03:57:56.844Z,85.86
2023-03-26T03:59:28.467Z,85.07
2023-03-26T04:01:04.271Z,85.00
2023-03-26T04:02:39.253Z,84.24
2023-03-26T04:04:11.155Z,85.42
2023-03-26T04:05:43.744Z,84.94
2023-03-26T04:07:15.572Z,85.78
2023-03-26T04:08:47.241Z,86.55
2023-03-26T04:10:18.968Z,86.34
2023-03-26T04:11:51.264Z,85.93
2023-03-26T04:13:29.380Z,86.08
2023-03-26T04:15:01.162Z,86.72
2023-03-26T04:16:34.293Z,85.64
2023-03-26T04:18:10.339Z,85.28
2023-03-26T04:19:44.032Z,85.45
2023-03-26T04:21:16.049Z,86.15
2023-03-26T04:22:47.789Z,87.05
2023-03-26T04:24:20.503Z,85.48
2023-03-26T04:25:54.034Z,86.00
2023-03-26T04:27:27.309Z,85.14
2023-03-26T04:28:59.906Z,86.35
2023-03-26T04:30:31.596Z,85.12
2023-03-26T04:32:08.152Z,86.23
2023-03-26T04:33:39.754Z,85.89
2023-03-26T04:35:11.762Z,86.55
2023-03-26T04:36:43.356Z,87.94
2023-03-26T04:38:16.836Z,86.81
2023-03-26T04:39:50.107Z,86.58
2023-03-26T04:41:26.372Z,87.07
2023-03-26T04:42:59.938Z,88.63
2023-03-26T04:44:31.858Z,87.88
2023-03-26T04:46:04.561Z,89.05
2023-03-26T04:47:39.005Z,89.36
2023-03-26T04:49:10.902Z,88.81
2023-03-26T04:50:42.616Z,87.69
2023-03-26T04:52:14.363Z,88.23
2023-03-26T04:53:47.338Z,88.85
2023-03-26T04:55:21.475Z,87.41
2023-03-26T04:56:54.375Z,87.50
2023-03-26T04:58:33.063Z,86.22
2023-03-26T05:00:15.345Z,86.33
2023-03-26T05:01:47.020Z,87.41
2023-03-26T05:03:21.014Z,88.24
2023-03-26T05:04:52.701Z,87.69
2023-03-26T05:06:25.173Z,88.51
2023-03-26T05:07:56.878Z,88.42
2023-03-26T05:09:28.548Z,89.16
2023-03-26T05:11:00.304Z,87.90
2023-03-26T05:12:31.875Z,88.22
2023-03-26T05:14:03.489Z,88.37
2023-03-26T05:15:35.345Z,89.73
2023-03-26T05:17:10.727Z,88.46
2023-03-26T05:18:43.779Z,88.33
2023-03-26T05:20:20.874Z,88.57
2023-03-26T05:21:52.524Z,87.93
2023-03-26T05:23:24.243Z,87.36
2023-03-26T05:24:56.321Z,88.06
2023-03-26T05:26:29.185Z,87.95
2023-03-26T05:28:01.081Z,86.37
2023-03-26T05:29:32.669Z,87.05
2023-03-26T05:31:04.334Z,86.98
2023-03-26T05:32:36.017Z,87.43
2023-03-26T05:34:09.038Z,86.23
2023-03-26T05:35:40.711Z,86.31
2023-03-26T05:37:13.903Z,87.35
2023-03-26T05:38:49.772Z,88.19
2023-03-26T05:40:21.868Z,88.86
2023-03-26T05:41:56.329Z,88.46
2023-03-26T05:43:28.313Z,87.15
2023-03-26T05:45:09.035Z,87.86
2023-03-26T05:46:40.972Z,86.75
2023-03-26T05:48:12.603Z,86.68
2023-03-26T05:49:46.956Z,86.23
2023-03-26T05:51:23.638Z,87.39
2023-03-26T05:52:55.807Z,86.68
2023-03-26T05:54:33.022Z,86.95
2023-03-26T05:56:07.063Z,87.64
2023-03-26T05:57:39.219Z,88.05
2023-03-26T05:59:10.994Z,87.48
2023-03-26T06:00:42.852Z,87.33
2023-03-26T06:02:14.600Z,86.11
2023-03-26T06:03:47.099Z,86.87
2023-03-26T06:05:20.490Z,86.56
2023-03-26T06:06:52.852Z,87.76
2023-03-26T06:08:24.669Z,86.68
2023-03-26T06:09:56.562Z,85.96
2023-03-26T06:11:28.465Z,87.46
2023-03-26T06:13:00.169Z,88.04
2023-03-26T06:14:31.918Z,87.33
2023-03-26T06:16:03.748Z,86.60
2023-03-26T06:17:35.800Z,86.20
2023-03-26T06:19:07.647Z,86.22
2023-03-26T06:20:42.480Z,86.95
2023-03-26T06:22:14.186Z,86.96
2023-03-26T06:23:46.748Z,87.45
2023-03-26T06:25:18.514Z,87.24
2023-03-26T06:26:50.272Z,86.26
2023-03-26T06:28:22.019Z,87.00
2023-03-26T06:29:54.721Z,86.86
2023-03-26T06:31:29.317Z,86.16
2023-03-26T06:33:01.233Z,87.18
2023-03-26T06:34:35.576Z,86.94
2023-03-26T06:36:11.815Z,87.24
2023-03-26T06:37:43.772Z,85.86
2023-03-26T06:39:15.979Z,87.40
2023-03-26T06:40:47.811Z,86.93
2023-03-26T06:42:19.678Z,88.13
2023-03-26T06:43:51.523Z,87.81
2023-03-26T06:46:17.879Z,86.47
2023-03-26T06:47:49.788Z,87.41
2023-03-26T06:49:21.620Z,87.56
2023-03-26T06:51:00.603Z,87.16
2023-03-26T06:52:43.276Z,87.77
2023-03-26T06:54:15.134Z,88.75
2023-03-26T06:55:47.086Z,88.29
2023-03-26T06:57:18.801Z,88.95
2023-03-26T06:58:50.652Z,88.59
2023-03-26T07:00:22.557Z,87.21
2023-03-26T07:01:54.328Z,87.22
2023-03-26T07:03:26.309Z,87.35
2023-03-26T07:04:58.172Z,89.01
2023-03-26T07:17:25.149Z,88.33
2023-03-26T07:33:14.514Z,87.54
2023-03-26T07:51:09.881Z,89.66
2023-03-26T07:56:39.096Z,90.65
2023-03-26T08:12:57.473Z,89.70
2023-03-26T08:15:14.763Z,89.64
2023-03-26T08:17:40.732Z,90.29
2023-03-26T08:20:58.461Z,90.51
2023-03-26T08:25:38.921Z,90.30
2023-03-26T08:27:59.308Z,90.80
2023-03-26T08:29:45.219Z,91.10
2023-03-26T08:33:20.636Z,90.81
2023-03-26T08:36:55.638Z,91.42
2023-03-26T08:39:54.967Z,91.79
2023-03-26T08:42:17.737Z,91.93
2023-03-26T08:47:29.486Z,93.80
2023-03-26T08:49:26.712Z,94.01
2023-03-26T08:51:53.050Z,94.04
2023-03-26T08:54:00.608Z,93.71
2023-03-26T08:56:06.551Z,93.93
2023-03-26T09:01:00.960Z,93.75
2023-03-26T09:03:33.749Z,93.75
2023-03-26T09:05:44.998Z,93.26
2023-03-26T09:08:08.433Z,93.52
2023-03-26T09:09:48.788Z,93.92
2023-03-26T09:12:15.785Z,93.86
2023-03-26T09:17:09.864Z,92.46
2023-03-26T09:22:13.773Z,92.66
2023-03-26T09:24:24.392Z,91.95
2023-03-26T09:26:18.761Z,91.86
2023-03-26T09:28:03.857Z,91.66
2023-03-26T09:30:45.707Z,92.47
2023-03-26T09:32:53.863Z,90.81
2023-03-26T09:35:25.416Z,91.41
2023-03-26T09:37:10.202Z,91.23
2023-03-26T09:41:52.690Z,91.65
2023-03-26T09:43:53.953Z,91.56
2023-03-26T09:47:42.125Z,92.02
2023-03-26T09:49:06.874Z,91.68
2023-03-26T09:51:08.644Z,92.07
2023-03-26T09:52:57.122Z,92.18
2023-03-26T09:55:20.324Z,91.58
2023-03-26T09:56:54.008Z,91.51
2023-03-26T09:58:37.381Z,90.54
2023-03-26T10:00:16.745Z,92.08
2023-03-26T10:01:52.274Z,91.47
2023-03-26T10:03:29.524Z,90.08
2023-03-26T10:05:13.624Z,91.76
2023-03-26T10:06:49.588Z,92.40
2023-03-26T10:08:47.512Z,92.49
2023-03-26T10:10:24.200Z,92.66
2023-03-26T10:12:05.447Z,92.85
2023-03-26T10:13:42.694Z,92.23
2023-03-26T10:15:27.192Z,89.38
2023-03-26T10:17:06.811Z,88.49
2023-03-26T10:19:00.657Z,89.77
2023-03-26T10:20:36.292Z,89.76
2023-03-26T10:22:16.043Z,89.07
2023-03-26T10:24:16.385Z,89.23
2023-03-26T10:27:08.690Z,88.78
2023-03-26T10:28:59.622Z,89.12
2023-03-26T10:31:19.361Z,89.67
2023-03-26T10:33:13.745Z,88.10
2023-03-26T10:35:18.133Z,88.44
2023-03-26T10:36:58.688Z,86.71
2023-03-26T10:39:35.992Z,86.08
2023-03-26T10:41:15.425Z,85.22
2023-03-26T10:43:09.240Z,86.64
2023-03-26T10:45:29.521Z,86.97
2023-03-26T10:47:49.671Z,86.53
2023-03-26T10:50:06.639Z,87.56
2023-03-26T10:51:55.544Z,87.30
2023-03-26T10:53:31.426Z,87.26
2023-03-26T10:55:17.674Z,87.59
2023-03-26T10:56:55.063Z,87.62
2023-03-26T10:58:27.800Z,87.78
2023-03-26T11:00:02.288Z,88.62
2023-03-26T11:02:20.577Z,88.03
2023-03-26T11:04:19.292Z,87.48
2023-03-26T11:06:21.444Z,87.06
2023-03-26T11:08:05.387Z,86.88
2023-03-26T11:10:05.799Z,86.49
2023-03-26T11:11:55.484Z,86.13
2023-03-26T11:13:35.070Z,85.56
2023-03-26T11:15:13.911Z,85.12
2023-03-26T11:16:53.523Z,83.88
2023-03-26T11:18:28.152Z,84.05
2023-03-26T11:20:02.728Z,85.05
2023-03-26T11:21:35.690Z,84.02
2023-03-26T11:23:27.321Z,83.69
2023-03-26T11:25:07.378Z,84.34
2023-03-26T11:26:44.905Z,83.28
2023-03-26T11:28:25.979Z,83.95
2023-03-26T11:30:03.091Z,83.45
2023-03-26T11:31:41.010Z,82.67
2023-03-26T11:33:16.790Z,81.83
2023-03-26T11:34:52.269Z,82.70
2023-03-26T11:36:25.277Z,83.38
2023-03-26T11:37:57.142Z,82.69
2023-03-26T11:39:29.680Z,82.20
2023-03-26T11:41:01.466Z,82.95
2023-03-26T11:42:33.138Z,81.61
2023-03-26T11:44:18.322Z,81.00
2023-03-26T11:45:50.057Z,80.80
2023-03-26T11:47:23.664Z,82.36
2023-03-26T11:48:57.557Z,80.70
2023-03-26T11:50:30.468Z,81.51
2023-03-26T11:52:02.917Z,80.57
2023-03-26T11:53:38.480Z,81.18
2023-03-26T11:55:11.393Z,81.75
2023-03-26T11:57:05.888Z,82.06
2023-03-26T11:58:39.050Z,81.06
2023-03-26T12:00:17.589Z,81.13
2023-03-26T12:01:53.057Z,80.01
2023-03-26T12:03:25.756Z,80.46
2023-03-26T12:05:13.321Z,80.36
2023-03-26T12:06:52.943Z,80.40
2023-03-26T12:08:28.826Z,80.47
2023-03-26T12:10:15.452Z,78.76
2023-03-26T12:11:53.447Z,79.04
2023-03-26T12:13:29.715Z,78.79
2023-03-26T12:15:01.328Z,78.86
2023-03-26T12:16:34.386Z,79.05
2023-03-26T12:18:19.766Z,78.67
2023-03-26T12:19:51.631Z,77.35
2023-03-26T12:21:27.129Z,76.88
2023-03-26T12:22:59.509Z,76.21
2023-03-26T12:24:32.091Z,75.46
2023-03-26T12:26:14.819Z,74.87
2023-03-26T12:27:48.048Z,74.23
2023-03-26T12:29:20.620Z,74.93
2023-03-26T12:30:55.987Z,75.03
2023-03-26T12:32:43.277Z,74.85
2023-03-26T12:34:18.292Z,74.72
2023-03-26T12:35:50.652Z,75.19
2023-03-26T12:37:35.734Z,73.97
2023-03-26T12:40:09.418Z,73.50
2023-03-26T12:44:43.722Z,71.42
2023-03-26T12:44:53.289Z,69.82
2023-03-26T12:45:12.832Z,70.45
2023-03-26T12:47:54.943Z,71.44
2023-03-26T12:48:38.600Z,70.78
2023-03-26T12:50:13.014Z,71.29
2023-03-26T12:51:47.633Z,69.36
2023-03-26T12:53:47.120Z,70.16
2023-03-26T12:55:30.083Z,69.49
2023-03-26T12:57:20.509Z,71.10
2023-03-26T12:59:01.965Z,69.76
2023-03-26T13:00:42.324Z,68.00
2023-03-26T13:03:05.683Z,67.31
2023-03-26T13:05:02.327Z,67.40
2023-03-26T13:06:59.816Z,67.37
2023-03-26T13:08:52.370Z,63.94
2023-03-26T13:10:31.642Z,65.44
2023-03-26T13:12:09.338Z,63.47
2023-03-26T13:13:56.407Z,64.48
2023-03-26T13:15:28.902Z,63.80
2023-03-26T13:17:03.378Z,63.29
2023-03-26T13:18:41.512Z,60.59
2023-03-26T13:20:18.858Z,60.48
2023-03-26T13:22:00.384Z,60.47
2023-03-26T13:23:36.426Z,62.02
2023-03-26T13:25:14.347Z,64.70
2023-03-26T13:26:52.943Z,61.90
2023-03-26T13:28:28.952Z,59.22
2023-03-26T13:30:02.326Z,65.10
2023-03-26T13:31:35.127Z,65.62
2023-03-26T13:33:21.599Z,63.71
2023-03-26T13:35:06.694Z,63.85
2023-03-26T13:36:43.845Z,63.68
2023-03-26T13:38:18.287Z,65.43
2023-03-26T13:39:55.533Z,64.35
2023-03-26T13:41:31.923Z,65.82
2023-03-26T13:43:18.122Z,65.99
2023-03-26T13:45:04.302Z,66.54
2023-03-26T13:46:39.687Z,65.69
2023-03-26T13:48:13.095Z,63.72
2023-03-26T13:49:46.779Z,61.97
2023-03-26T13:51:22.195Z,60.97
2023-03-26T13:52:59.396Z,59.83
2023-03-26T13:54:32.399Z,59.38
2023-03-26T13:56:04.372Z,61.17
2023-03-26T13:57:37.815Z,60.89
2023-03-26T13:59:16.381Z,58.93
2023-03-26T14:00:54.460Z,60.60
2023-03-26T14:02:29.388Z,59.73
2023-03-26T14:04:03.478Z,60.79
2023-03-26T14:05:37.125Z,62.19
2023-03-26T14:07:11.259Z,63.03
2023-03-26T14:08:46.061Z,63.00
2023-03-26T14:10:19.799Z,64.32
2023-03-26T14:12:26.992Z,65.53
2023-03-26T14:14:01.225Z,66.21
2023-03-26T14:15:34.677Z,66.63
2023-03-26T14:17:18.054Z,66.86
2023-03-26T14:19:45.283Z,66.81
2023-03-26T14:29:34.027Z,72.15
2023-03-26T14:31:13.993Z,73.09
2023-03-26T14:32:55.732Z,73.30
2023-03-26T14:34:50.167Z,73.12
2023-03-26T14:36:29.048Z,71.78
2023-03-26T14:38:34.844Z,75.61
2023-03-26T14:40:27.235Z,78.09
2023-03-26T14:42:03.425Z,76.36
2023-03-26T14:44:16.879Z,78.19
2023-03-26T14:46:06.968Z,76.23
2023-03-26T14:47:44.502Z,77.37
2023-03-26T14:49:39.720Z,77.05
2023-03-26T14:51:17.585Z,78.25
2023-03-26T14:53:01.206Z,77.57
2023-03-26T14:54:36.445Z,78.02
2023-03-26T14:56:32.009Z,78.44
2023-03-26T14:58:13.764Z,77.90
2023-03-26T15:00:15.944Z,77.21
2023-03-26T15:02:20.160Z,76.34
2023-03-26T15:04:22.408Z,76.41
2023-03-26T15:06:26.413Z,75.03
2023-03-26T15:08:15.708Z,77.91
2023-03-26T15:10:29.651Z,77.68
2023-03-26T15:12:12.546Z,78.58
2023-03-26T15:13:53.600Z,79.57
2023-03-26T15:16:17.732Z,79.91
2023-03-26T15:18:11.973Z,80.33
2023-03-26T15:20:26.023Z,80.86
2023-03-26T15:22:36.162Z,80.98
2023-03-26T15:25:07.125Z,82.12
2023-03-26T15:27:21.820Z,85.98
2023-03-26T15:29:30.045Z,87.07
2023-03-26T15:31:21.230Z,86.95
2023-03-26T15:33:17.107Z,87.33
2023-03-26T15:35:36.445Z,87.95
2023-03-26T15:37:29.959Z,88.61
2023-03-26T15:39:38.062Z,88.92
2023-03-26T15:41:18.392Z,88.43
2023-03-26T15:42:54.905Z,88.51
2023-03-26T15:44:40.869Z,87.74
2023-03-26T15:46:26.554Z,86.98
2023-03-26T15:48:18.249Z,86.69
2023-03-26T15:49:50.737Z,87.33
2023-03-26T15:51:28.759Z,86.81
2023-03-26T15:53:06.624Z,85.95
2023-03-26T15:54:45.359Z,85.85
2023-03-26T15:56:25.876Z,85.90
2023-03-26T15:58:02.379Z,87.25
2023-03-26T15:59:40.751Z,86.43
2023-03-26T16:01:18.878Z,87.28
2023-03-26T16:02:58.153Z,87.37
2023-03-26T16:04:50.167Z,87.72
2023-03-26T16:06:31.145Z,87.72
2023-03-26T16:08:07.644Z,87.85
2023-03-26T16:09:48.307Z,87.46
2023-03-26T16:11:45.041Z,86.81
2023-03-26T16:13:37.660Z,86.78
2023-03-26T16:15:37.034Z,86.87
2023-03-26T16:17:12.469Z,86.98
2023-03-26T16:18:44.971Z,87.34
2023-03-26T16:20:22.954Z,86.70
2023-03-26T16:21:56.056Z,87.01
2023-03-26T16:23:29.393Z,87.33
2023-03-26T16:25:27.840Z,87.75
2023-03-26T16:27:30.352Z,87.60
2023-03-26T16:29:18.234Z,87.32
2023-03-26T16:31:37.736Z,87.09
2023-03-26T16:33:12.634Z,87.54
2023-03-26T16:34:50.574Z,87.33
2023-03-26T16:36:38.985Z,87.27
2023-03-26T16:38:13.427Z,87.41
2023-03-26T16:39:45.159Z,87.77
2023-03-26T16:41:18.089Z,87.86
2023-03-26T16:42:49.796Z,87.87
2023-03-26T16:44:21.656Z,88.60
2023-03-26T16:45:55.245Z,88.13
2023-03-26T16:47:28.975Z,87.82
2023-03-26T16:49:05.441Z,87.73
2023-03-26T16:50:42.261Z,87.88
2023-03-26T16:52:31.165Z,86.60
2023-03-26T16:54:09.529Z,85.65
2023-03-26T16:55:45.585Z,86.24
2023-03-26T16:57:24.161Z,85.79
2023-03-26T16:58:58.957Z,85.32
2023-03-26T17:00:48.222Z,85.11
2023-03-26T17:02:23.243Z,85.48
2023-03-26T17:03:55.670Z,86.61
2023-03-26T17:05:34.338Z,86.20
2023-03-26T17:07:14.021Z,85.26
2023-03-26T17:08:53.313Z,84.88
2023-03-26T17:10:31.727Z,85.12
2023-03-26T17:12:09.146Z,85.69
2023-03-26T17:13:44.459Z,85.23
2023-03-26T17:15:26.516Z,85.45
2023-03-26T17:17:09.672Z,84.83
2023-03-26T17:18:47.069Z,85.59
2023-03-26T17:20:29.831Z,84.43
2023-03-26T17:22:03.806Z,84.51
2023-03-26T17:23:47.275Z,84.27
2023-03-26T17:25:23.065Z,84.76
2023-03-26T17:26:58.359Z,85.20
2023-03-26T17:28:42.663Z,84.88
2023-03-26T17:30:42.646Z,83.83
2023-03-26T17:32:15.152Z,83.86
2023-03-26T17:33:47.974Z,85.05
2023-03-26T17:35:27.042Z,83.32
2023-03-26T17:36:59.046Z,82.98
2023-03-26T17:38:54.242Z,81.19
2023-03-26T17:40:31.349Z,82.16
2023-03-26T17:42:18.788Z,82.58
2023-03-26T17:43:50.681Z,81.95
2023-03-26T17:45:24.971Z,81.94
2023-03-26T17:46:56.574Z,81.38
2023-03-26T17:48:28.155Z,82.07
2023-03-26T17:50:01.540Z,81.42
2023-03-26T17:51:42.508Z,81.46
2023-03-26T17:53:18.807Z,81.33
2023-03-26T17:54:51.229Z,80.62
2023-03-26T17:56:27.690Z,80.61
2023-03-26T17:58:00.162Z,80.62
2023-03-26T17:59:31.796Z,81.32
2023-03-26T18:01:06.231Z,82.07
2023-03-26T18:02:41.727Z,80.91
2023-03-26T18:04:15.630Z,80.58
2023-03-26T18:05:47.673Z,81.05
2023-03-26T18:08:10.181Z,80.46
2023-03-26T18:09:48.987Z,81.82
2023-03-26T18:11:31.626Z,80.45
2023-03-26T18:13:15.268Z,80.94
2023-03-26T18:15:14.494Z,81.38
2023-03-26T18:16:47.290Z,80.58
2023-03-26T18:18:20.266Z,81.49
2023-03-26T18:19:52.656Z,81.18
2023-03-26T18:21:26.049Z,80.86
2023-03-26T18:22:58.811Z,81.13
2023-03-26T18:24:31.750Z,81.41
2023-03-26T18:26:11.027Z,81.61
2023-03-26T18:27:43.993Z,80.49
2023-03-26T18:29:23.871Z,80.14
2023-03-26T18:30:55.600Z,79.64
2023-03-26T18:32:30.973Z,80.19
2023-03-26T18:34:06.652Z,80.28
2023-03-26T18:35:41.041Z,80.41
2023-03-26T18:37:16.937Z,80.57
2023-03-26T18:38:48.804Z,80.88
2023-03-26T18:40:21.391Z,80.51
2023-03-26T18:41:53.065Z,79.42
2023-03-26T18:43:34.407Z,80.64
2023-03-26T18:45:09.636Z,79.81
2023-03-26T18:46:41.266Z,79.87
2023-03-26T18:48:17.800Z,79.67
2023-03-26T18:49:51.259Z,79.62
2023-03-26T18:51:23.271Z,80.03
2023-03-26T18:52:57.130Z,79.60
2023-03-26T18:54:29.885Z,80.19
2023-03-26T18:56:01.531Z,80.80
2023-03-26T18:57:33.116Z,79.87
2023-03-26T18:59:07.064Z,80.49
2023-03-26T19:00:40.034Z,80.50
2023-03-26T19:02:13.612Z,80.07
2023-03-26T19:03:45.620Z,80.41
2023-03-26T19:05:17.668Z,79.89
2023-03-26T19:06:53.748Z,79.61
2023-03-26T19:08:25.327Z,80.70
2023-03-26T19:09:56.944Z,81.07
2023-03-26T19:11:28.540Z,81.00
2023-03-26T19:13:01.054Z,80.30
2023-03-26T19:14:36.884Z,81.76
2023-03-26T19:16:17.859Z,80.85
2023-03-26T19:17:53.302Z,80.70
2023-03-26T19:19:27.865Z,81.23
2023-03-26T19:20:59.881Z,81.17
2023-03-26T19:22:31.724Z,81.44
2023-03-26T19:24:05.071Z,80.99
2023-03-26T19:25:39.143Z,81.13
2023-03-26T19:27:10.801Z,81.87
2023-03-26T19:28:51.165Z,81.39
2023-03-26T19:30:29.359Z,81.63
2023-03-26T19:32:02.008Z,81.14
2023-03-26T19:33:36.455Z,82.13
2023-03-26T19:35:21.494Z,82.22
2023-03-26T19:36:58.159Z,81.84
2023-03-26T19:38:36.718Z,82.02
2023-03-26T19:40:14.165Z,81.59
2023-03-26T19:41:45.908Z,81.62
2023-03-26T19:43:17.486Z,82.12
2023-03-26T19:44:49.617Z,81.24
2023-03-26T19:46:23.413Z,82.95
2023-03-26T19:48:07.770Z,82.11
2023-03-26T19:49:52.864Z,82.19
2023-03-26T19:51:32.631Z,81.74
2023-03-26T19:53:15.423Z,81.85
2023-03-26T19:54:59.534Z,82.60
2023-03-26T19:56:36.585Z,82.22
2023-03-26T19:58:11.275Z,81.97
2023-03-26T19:59:45.802Z,82.70
2023-03-26T20:01:24.576Z,83.25
2023-03-26T20:02:56.316Z,82.21
2023-03-26T20:04:32.359Z,82.70
2023-03-26T20:08:52.099Z,82.57
2023-03-26T20:10:23.844Z,83.05
2023-03-26T20:11:55.600Z,82.33
2023-03-26T20:13:27.289Z,82.36
2023-03-26T20:14:58.861Z,82.72
2023-03-26T20:16:32.173Z,83.09
2023-03-26T20:18:04.153Z,83.07
2023-03-26T20:19:39.166Z,83.18
2023-03-26T20:21:11.187Z,82.59
2023-03-26T20:22:43.771Z,83.55
2023-03-26T20:24:16.250Z,83.25
2023-03-26T20:25:50.056Z,82.46
2023-03-26T20:27:22.452Z,83.15
2023-03-26T20:28:54.163Z,83.00
2023-03-26T20:32:03.657Z,82.75
2023-03-26T20:33:35.308Z,83.38
2023-03-26T20:35:14.747Z,83.42
2023-03-26T20:36:46.764Z,83.61
2023-03-26T20:38:21.697Z,84.06
2023-03-26T20:39:53.449Z,83.27
2023-03-26T20:41:25.032Z,82.79
2023-03-26T20:42:56.624Z,83.57
2023-03-26T20:44:28.449Z,83.50
2023-03-26T20:46:00.609Z,84.10
2023-03-26T20:47:34.261Z,83.46
2023-03-26T20:49:06.639Z,83.87
2023-03-26T20:50:50.393Z,83.37
2023-03-26T20:52:25.551Z,83.40
2023-03-26T20:53:57.159Z,83.48
2023-03-26T20:55:28.834Z,83.45
2023-03-26T20:57:00.551Z,83.31
2023-03-26T20:58:32.505Z,83.66
2023-03-26T21:00:15.066Z,83.67
2023-03-26T21:01:49.892Z,83.61
2023-03-26T21:03:22.855Z,83.70
2023-03-26T21:04:55.175Z,84.23
2023-03-26T21:06:26.822Z,84.50
2023-03-26T21:07:59.395Z,84.46
2023-03-26T21:09:35.472Z,84.16
2023-03-26T21:11:15.517Z,84.80
2023-03-26T21:13:00.124Z,84.36
2023-03-26T21:14:33.393Z,84.26
2023-03-26T21:16:06.456Z,83.61
2023-03-26T21:17:38.883Z,83.34
2023-03-26T21:19:12.314Z,83.99
2023-03-26T21:20:44.886Z,83.93
2023-03-26T21:22:25.715Z,84.10
2023-03-26T21:24:00.229Z,83.91
2023-03-26T21:25:35.425Z,83.42
2023-03-26T21:27:10.153Z,83.62
2023-03-26T21:28:46.554Z,83.59
2023-03-26T21:30:18.731Z,83.86
2023-03-26T21:31:53.883Z,83.65
2023-03-26T21:33:27.039Z,83.56
2023-03-26T21:35:00.847Z,83.81
2023-03-26T21:36:33.409Z,83.84
2023-03-26T21:38:05.524Z,84.19
2023-03-26T21:39:37.989Z,83.41
2023-03-26T21:41:11.101Z,84.07
2023-03-26T21:42:43.115Z,84.14
2023-03-26T21:44:14.828Z,83.95
2023-03-26T21:45:48.617Z,84.25
2023-03-26T21:47:20.668Z,84.23
2023-03-26T21:48:52.747Z,83.90
2023-03-26T21:50:26.393Z,83.77
2023-03-26T21:51:58.514Z,83.81
2023-03-26T21:53:30.734Z,84.50
2023-03-26T21:55:05.215Z,84.12
2023-03-26T21:56:43.567Z,84.54
2023-03-26T22:00:18.680Z,85.02
2023-03-26T22:01:54.241Z,84.90
2023-03-26T22:03:28.047Z,84.73
2023-03-26T22:05:02.261Z,84.19
2023-03-26T22:06:37.413Z,85.22
2023-03-26T22:08:12.909Z,85.50
2023-03-26T22:09:45.063Z,85.17
2023-03-26T22:11:16.626Z,85.18
2023-03-26T22:12:48.206Z,85.63
2023-03-26T22:14:20.607Z,86.00
2023-03-26T22:15:52.250Z,85.53
2023-03-26T22:17:23.899Z,85.89
2023-03-26T22:18:55.539Z,85.93
2023-03-26T22:20:28.048Z,86.17
2023-03-26T22:22:01.619Z,86.38
2023-03-26T22:23:34.271Z,86.17
2023-03-26T22:25:06.108Z,86.72
2023-03-26T22:26:37.711Z,86.87
2023-03-26T22:28:09.448Z,86.65
2023-03-26T22:29:41.011Z,86.96
2023-03-26T22:31:12.605Z,86.19
2023-03-26T22:32:44.771Z,86.26
2023-03-26T22:34:16.496Z,86.73
2023-03-26T22:35:48.101Z,86.75
2023-03-26T22:37:21.041Z,86.87
2023-03-26T22:38:53.684Z,87.10
2023-03-26T22:40:25.587Z,86.36
2023-03-26T22:41:57.542Z,87.21
2023-03-26T22:43:29.093Z,87.35
2023-03-26T22:45:00.676Z,86.87
2023-03-26T22:46:32.825Z,85.91
2023-03-26T22:48:04.904Z,86.33
2023-03-26T22:49:36.908Z,86.34
2023-03-26T22:51:09.147Z,87.24
2023-03-26T22:52:42.170Z,86.87
2023-03-26T22:54:14.531Z,87.15